BAW880A EGLL-LGSR
Flight info
| Callsign | BAW880A |
|---|---|
| Flight time | 3h 8m |
| Altitude | 35000 |
| Route | DET L6 DVR UL9 KONAN DCT KOK DCT PITES DCT EDISA DCT PICWI DCT UTABA DCT BEMKI DCT ELMEM DCT DIRAB DCT VESAL/N0437F370 DCT VAKSU DCT KOFER DCT PINDO DCT PIKOS DCT KEA UL607 GENDO L607 NETIS M601 PEXAN |
| Aircraft | A320/M-SDE3FGHIRWY/LB1 |
Departure
| Time | 2026-04-22 07:17 |
|---|---|
| Airport | London Heathrow Airport (EGLL) |
Arrival
| Time | 2026-04-22 10:26 |
|---|---|
| Airport | Santorini International Airport (LGSR) |
| Time | Latitude | Longitude | Altitude | Speed | Heading |
|---|---|---|---|---|---|
| 2026-04-22 06:53 | 51.47188 | -0.48589 | 86 ft | 0 kts | 269° |
| 2026-04-22 07:10 | 51.47188 | -0.48565 | 86 ft | 4 kts | 269° |
| 2026-04-22 07:11 | 51.47188 | -0.48529 | 86 ft | 2 kts | 269° |
| 2026-04-22 07:11 | 51.47192 | -0.48490 | 91 ft | 4 kts | 232° |
| 2026-04-22 07:11 | 51.47210 | -0.48473 | 86 ft | 3 kts | 179° |
| 2026-04-22 07:11 | 51.47227 | -0.48473 | 86 ft | 0 kts | 179° |
| 2026-04-22 07:14 | 51.47212 | -0.48473 | 88 ft | 10 kts | 180° |
| 2026-04-22 07:14 | 51.47071 | -0.48472 | 86 ft | 29 kts | 180° |
| 2026-04-22 07:14 | 51.46859 | -0.48465 | 86 ft | 31 kts | 178° |
| 2026-04-22 07:15 | 51.46663 | -0.48533 | 86 ft | 27 kts | 242° |
| 2026-04-22 07:15 | 51.46615 | -0.48756 | 91 ft | 0 kts | 208° |
| 2026-04-22 07:16 | 51.46554 | -0.48782 | 87 ft | 20 kts | 185° |
| 2026-04-22 07:16 | 51.46475 | -0.48549 | 87 ft | 30 kts | 92° |
| 2026-04-22 07:17 | 51.46482 | -0.48088 | 91 ft | 73 kts | 89° |
| 2026-04-22 07:17 | 51.46495 | -0.46841 | 89 ft | 145 kts | 90° |
| 2026-04-22 07:17 | 51.46513 | -0.44965 | 360 ft | 179 kts | 88° |
| 2026-04-22 07:17 | 51.46531 | -0.43011 | 1270 ft | 177 kts | 88° |
| 2026-04-22 07:18 | 51.46316 | -0.41019 | 1967 ft | 198 kts | 118° |
| 2026-04-22 07:18 | 51.45446 | -0.39149 | 2599 ft | 221 kts | 123° |
| 2026-04-22 07:18 | 51.44552 | -0.37085 | 3526 ft | 230 kts | 120° |
| 2026-04-22 07:18 | 51.43775 | -0.34850 | 4580 ft | 230 kts | 108° |
| 2026-04-22 07:19 | 51.43348 | -0.32365 | 5404 ft | 233 kts | 103° |
| 2026-04-22 07:19 | 51.42972 | -0.29819 | 6237 ft | 236 kts | 103° |
| 2026-04-22 07:19 | 51.42599 | -0.27228 | 6994 ft | 241 kts | 102° |
| 2026-04-22 07:19 | 51.42238 | -0.24617 | 7743 ft | 245 kts | 102° |
| 2026-04-22 07:20 | 51.41873 | -0.21923 | 8453 ft | 250 kts | 102° |
| 2026-04-22 07:20 | 51.41505 | -0.19174 | 9174 ft | 255 kts | 102° |
| 2026-04-22 07:20 | 51.41130 | -0.16379 | 9875 ft | 259 kts | 102° |
| 2026-04-22 07:20 | 51.40738 | -0.13498 | 10318 ft | 275 kts | 102° |
| 2026-04-22 07:21 | 51.40313 | -0.10381 | 10495 ft | 297 kts | 102° |
| 2026-04-22 07:21 | 51.39856 | -0.07056 | 10836 ft | 312 kts | 102° |
| 2026-04-22 07:21 | 51.39381 | -0.03626 | 11412 ft | 318 kts | 102° |
| 2026-04-22 07:21 | 51.38897 | -0.00136 | 11999 ft | 324 kts | 102° |
| 2026-04-22 07:22 | 51.38401 | 0.03413 | 12589 ft | 328 kts | 102° |
| 2026-04-22 07:22 | 51.37903 | 0.06970 | 13332 ft | 328 kts | 102° |
| 2026-04-22 07:22 | 51.37402 | 0.10546 | 13935 ft | 332 kts | 102° |
| 2026-04-22 07:22 | 51.36890 | 0.14176 | 14502 ft | 336 kts | 102° |
| 2026-04-22 07:23 | 51.36378 | 0.17800 | 15058 ft | 340 kts | 102° |
| 2026-04-22 07:23 | 51.35855 | 0.21516 | 15593 ft | 345 kts | 101° |
| 2026-04-22 07:23 | 51.35326 | 0.25278 | 16122 ft | 349 kts | 101° |
| 2026-04-22 07:23 | 51.34790 | 0.29085 | 16620 ft | 353 kts | 101° |
| 2026-04-22 07:24 | 51.34244 | 0.32938 | 17129 ft | 357 kts | 101° |
| 2026-04-22 07:24 | 51.33690 | 0.36836 | 17631 ft | 361 kts | 101° |
| 2026-04-22 07:24 | 51.33127 | 0.40771 | 18117 ft | 366 kts | 101° |
| 2026-04-22 07:24 | 51.32556 | 0.44767 | 18605 ft | 370 kts | 101° |
| 2026-04-22 07:25 | 51.31983 | 0.48743 | 19074 ft | 375 kts | 101° |
| 2026-04-22 07:25 | 51.31393 | 0.52829 | 19546 ft | 379 kts | 101° |
| 2026-04-22 07:25 | 51.30796 | 0.56967 | 20015 ft | 384 kts | 101° |
| 2026-04-22 07:25 | 51.30179 | 0.61147 | 20493 ft | 389 kts | 102° |
| 2026-04-22 07:26 | 51.29478 | 0.65356 | 20947 ft | 394 kts | 103° |
| 2026-04-22 07:26 | 51.28709 | 0.69582 | 21391 ft | 399 kts | 104° |
| 2026-04-22 07:26 | 51.27898 | 0.73849 | 21826 ft | 403 kts | 104° |
| 2026-04-22 07:26 | 51.27073 | 0.78150 | 22247 ft | 407 kts | 104° |
| 2026-04-22 07:27 | 51.26246 | 0.82496 | 22662 ft | 411 kts | 104° |
| 2026-04-22 07:27 | 51.25429 | 0.86831 | 23071 ft | 415 kts | 104° |
| 2026-04-22 07:27 | 51.24602 | 0.91272 | 23476 ft | 419 kts | 103° |
| 2026-04-22 07:27 | 51.23775 | 0.95754 | 23881 ft | 422 kts | 103° |
| 2026-04-22 07:28 | 51.22104 | 1.04820 | 24633 ft | 430 kts | 103° |
| 2026-04-22 07:28 | 51.21253 | 1.09404 | 24995 ft | 433 kts | 103° |
| 2026-04-22 07:28 | 51.20392 | 1.14024 | 25358 ft | 436 kts | 104° |
| 2026-04-22 07:29 | 51.19817 | 1.17103 | 25597 ft | 438 kts | 104° |
| 2026-04-22 07:29 | 51.18658 | 1.23286 | 26056 ft | 442 kts | 104° |
| 2026-04-22 07:29 | 51.17766 | 1.27988 | 26392 ft | 445 kts | 104° |
| 2026-04-22 07:29 | 51.16870 | 1.32718 | 26712 ft | 448 kts | 103° |
| 2026-04-22 07:30 | 51.16213 | 1.37557 | 27025 ft | 447 kts | 94° |
| 2026-04-22 07:30 | 51.15944 | 1.42487 | 27334 ft | 448 kts | 91° |
| 2026-04-22 07:30 | 51.15793 | 1.45771 | 27540 ft | 449 kts | 91° |
| 2026-04-22 07:30 | 51.15561 | 1.50746 | 27846 ft | 452 kts | 91° |
| 2026-04-22 07:31 | 51.15322 | 1.55752 | 28143 ft | 455 kts | 91° |
| 2026-04-22 07:31 | 51.14997 | 1.62425 | 28548 ft | 458 kts | 91° |
| 2026-04-22 07:31 | 51.14746 | 1.67487 | 28825 ft | 460 kts | 91° |
| 2026-04-22 07:31 | 51.14490 | 1.72580 | 29108 ft | 463 kts | 91° |
| 2026-04-22 07:32 | 51.14229 | 1.77699 | 29415 ft | 464 kts | 91° |
| 2026-04-22 07:32 | 51.14055 | 1.81087 | 29673 ft | 464 kts | 91° |
| 2026-04-22 07:32 | 51.13794 | 1.86188 | 30049 ft | 464 kts | 91° |
| 2026-04-22 07:32 | 51.13531 | 1.91315 | 30429 ft | 463 kts | 91° |
| 2026-04-22 07:33 | 51.13266 | 1.96421 | 30797 ft | 463 kts | 91° |
| 2026-04-22 07:33 | 51.13001 | 2.01532 | 31169 ft | 463 kts | 91° |
| 2026-04-22 07:33 | 51.12734 | 2.06633 | 31567 ft | 462 kts | 91° |
| 2026-04-22 07:33 | 51.12379 | 2.13337 | 32217 ft | 457 kts | 91° |
| 2026-04-22 07:34 | 51.12197 | 2.16742 | 32487 ft | 456 kts | 91° |
| 2026-04-22 07:34 | 51.11928 | 2.21706 | 32855 ft | 456 kts | 91° |
| 2026-04-22 07:34 | 51.11651 | 2.26737 | 33199 ft | 456 kts | 91° |
| 2026-04-22 07:34 | 51.11369 | 2.31761 | 33547 ft | 456 kts | 91° |
| 2026-04-22 07:35 | 51.11083 | 2.36785 | 33889 ft | 456 kts | 91° |
| 2026-04-22 07:35 | 51.10799 | 2.41803 | 34214 ft | 455 kts | 91° |
| 2026-04-22 07:35 | 51.10515 | 2.46823 | 34527 ft | 455 kts | 91° |
| 2026-04-22 07:35 | 51.10232 | 2.51829 | 34857 ft | 454 kts | 91° |
| 2026-04-22 07:36 | 51.09951 | 2.56822 | 35177 ft | 453 kts | 91° |
| 2026-04-22 07:36 | 51.09573 | 2.61742 | 35307 ft | 456 kts | 98° |
| 2026-04-22 07:36 | 51.07450 | 2.71368 | 35330 ft | 467 kts | 116° |
| 2026-04-22 07:37 | 51.04423 | 2.80539 | 35331 ft | 469 kts | 116° |
| 2026-04-22 07:37 | 51.01404 | 2.89704 | 35331 ft | 468 kts | 116° |
| 2026-04-22 07:38 | 50.98385 | 2.98863 | 35331 ft | 468 kts | 116° |
| 2026-04-22 07:38 | 50.95377 | 3.07941 | 35330 ft | 468 kts | 116° |
| 2026-04-22 07:39 | 50.92327 | 3.17076 | 35331 ft | 469 kts | 116° |
| 2026-04-22 07:39 | 50.89272 | 3.26203 | 35334 ft | 469 kts | 116° |
| 2026-04-22 07:40 | 50.86211 | 3.35328 | 35333 ft | 469 kts | 116° |
| 2026-04-22 07:40 | 50.83168 | 3.44372 | 35331 ft | 469 kts | 116° |
| 2026-04-22 07:41 | 50.80098 | 3.53473 | 35329 ft | 469 kts | 116° |
| 2026-04-22 07:41 | 50.77012 | 3.62557 | 35330 ft | 469 kts | 116° |
| 2026-04-22 07:42 | 50.73911 | 3.71635 | 35333 ft | 470 kts | 116° |
| 2026-04-22 07:42 | 50.70810 | 3.80712 | 35328 ft | 470 kts | 116° |
| 2026-04-22 07:43 | 50.67718 | 3.89736 | 35329 ft | 471 kts | 116° |
| 2026-04-22 07:43 | 50.64589 | 3.98818 | 35326 ft | 472 kts | 116° |
| 2026-04-22 07:44 | 50.61456 | 4.07899 | 35331 ft | 471 kts | 116° |
| 2026-04-22 07:44 | 50.58318 | 4.16963 | 35343 ft | 471 kts | 116° |
| 2026-04-22 07:45 | 50.55207 | 4.25936 | 35342 ft | 470 kts | 116° |
| 2026-04-22 07:45 | 50.52061 | 4.34951 | 35343 ft | 470 kts | 117° |
| 2026-04-22 07:46 | 50.48897 | 4.43949 | 35342 ft | 470 kts | 117° |
| 2026-04-22 07:46 | 50.45730 | 4.52935 | 35348 ft | 470 kts | 117° |
| 2026-04-22 07:47 | 50.42585 | 4.61849 | 35346 ft | 470 kts | 117° |
| 2026-04-22 07:47 | 50.39419 | 4.70801 | 35348 ft | 469 kts | 117° |
| 2026-04-22 07:48 | 50.36239 | 4.79732 | 35354 ft | 469 kts | 117° |
| 2026-04-22 07:48 | 50.33068 | 4.88632 | 35351 ft | 467 kts | 117° |
| 2026-04-22 07:49 | 50.29925 | 4.97444 | 35351 ft | 467 kts | 117° |
| 2026-04-22 07:49 | 50.26751 | 5.06281 | 35345 ft | 466 kts | 117° |
| 2026-04-22 07:50 | 50.23576 | 5.15092 | 35347 ft | 464 kts | 117° |
| 2026-04-22 07:50 | 50.20403 | 5.23859 | 35347 ft | 464 kts | 117° |
| 2026-04-22 07:51 | 50.17242 | 5.32554 | 35340 ft | 463 kts | 117° |
| 2026-04-22 07:51 | 50.14072 | 5.41273 | 35334 ft | 462 kts | 117° |
| 2026-04-22 07:52 | 50.10902 | 5.49994 | 35330 ft | 462 kts | 117° |
| 2026-04-22 07:52 | 50.07712 | 5.58687 | 35322 ft | 462 kts | 117° |
| 2026-04-22 07:53 | 50.04512 | 5.67364 | 35313 ft | 462 kts | 118° |
| 2026-04-22 07:53 | 50.01337 | 5.75979 | 35305 ft | 462 kts | 117° |
| 2026-04-22 07:54 | 49.98135 | 5.84643 | 35296 ft | 463 kts | 118° |
| 2026-04-22 07:54 | 49.94919 | 5.93305 | 35292 ft | 463 kts | 118° |
| 2026-04-22 07:55 | 49.91692 | 6.01943 | 35284 ft | 463 kts | 118° |
| 2026-04-22 07:55 | 49.88460 | 6.10579 | 35281 ft | 463 kts | 118° |
| 2026-04-22 07:56 | 49.85250 | 6.19144 | 35288 ft | 463 kts | 118° |
| 2026-04-22 07:56 | 49.82010 | 6.27758 | 35286 ft | 463 kts | 118° |
| 2026-04-22 07:57 | 49.78756 | 6.36370 | 35284 ft | 463 kts | 118° |
| 2026-04-22 07:57 | 49.75504 | 6.44984 | 35282 ft | 464 kts | 118° |
| 2026-04-22 07:58 | 49.72245 | 6.53527 | 35282 ft | 464 kts | 119° |
| 2026-04-22 07:58 | 49.68871 | 6.62045 | 35285 ft | 465 kts | 120° |
| 2026-04-22 07:59 | 49.65438 | 6.70519 | 35282 ft | 466 kts | 120° |
| 2026-04-22 07:59 | 49.61998 | 6.79000 | 35288 ft | 466 kts | 120° |
| 2026-04-22 08:00 | 49.58588 | 6.87441 | 35286 ft | 467 kts | 120° |
| 2026-04-22 08:00 | 49.55156 | 6.95936 | 35288 ft | 467 kts | 120° |
| 2026-04-22 08:01 | 49.51706 | 7.04424 | 35296 ft | 468 kts | 120° |
| 2026-04-22 08:01 | 49.48251 | 7.12899 | 35307 ft | 468 kts | 120° |
| 2026-04-22 08:02 | 49.44810 | 7.21304 | 35309 ft | 467 kts | 120° |
| 2026-04-22 08:02 | 49.41343 | 7.29745 | 35310 ft | 467 kts | 120° |
| 2026-04-22 08:03 | 49.37875 | 7.38169 | 35308 ft | 467 kts | 120° |
| 2026-04-22 08:03 | 49.34403 | 7.46575 | 35307 ft | 466 kts | 120° |
| 2026-04-22 08:04 | 49.30933 | 7.54968 | 35302 ft | 466 kts | 120° |
| 2026-04-22 08:04 | 49.27474 | 7.63297 | 35301 ft | 466 kts | 120° |
| 2026-04-22 08:05 | 49.23983 | 7.71662 | 35304 ft | 466 kts | 121° |
| 2026-04-22 08:05 | 49.20489 | 7.80014 | 35302 ft | 466 kts | 120° |
| 2026-04-22 08:06 | 49.16991 | 7.88352 | 35297 ft | 466 kts | 121° |
| 2026-04-22 08:06 | 49.13504 | 7.96637 | 35292 ft | 467 kts | 121° |
| 2026-04-22 08:07 | 49.09984 | 8.04972 | 35293 ft | 467 kts | 121° |
| 2026-04-22 08:07 | 49.06464 | 8.13289 | 35290 ft | 467 kts | 121° |
| 2026-04-22 08:08 | 49.02960 | 8.21542 | 35286 ft | 467 kts | 121° |
| 2026-04-22 08:08 | 48.99341 | 8.29760 | 35276 ft | 469 kts | 128° |
| 2026-04-22 08:09 | 48.94692 | 8.36737 | 35279 ft | 470 kts | 134° |
| 2026-04-22 08:09 | 48.90184 | 8.43965 | 35274 ft | 471 kts | 132° |
| 2026-04-22 08:10 | 48.85701 | 8.51225 | 35257 ft | 472 kts | 132° |
| 2026-04-22 08:10 | 48.81223 | 8.58428 | 35255 ft | 473 kts | 132° |
| 2026-04-22 08:11 | 48.76697 | 8.65669 | 35270 ft | 473 kts | 133° |
| 2026-04-22 08:11 | 48.72155 | 8.72904 | 35276 ft | 474 kts | 133° |
| 2026-04-22 08:12 | 48.67607 | 8.80135 | 35278 ft | 475 kts | 133° |
| 2026-04-22 08:12 | 48.63083 | 8.87315 | 35270 ft | 474 kts | 133° |
| 2026-04-22 08:13 | 48.58521 | 8.94528 | 35274 ft | 475 kts | 133° |
| 2026-04-22 08:13 | 48.53955 | 9.01734 | 35277 ft | 475 kts | 133° |
| 2026-04-22 08:14 | 48.49383 | 9.08935 | 35281 ft | 475 kts | 133° |
| 2026-04-22 08:14 | 48.44836 | 9.16072 | 35275 ft | 475 kts | 133° |
| 2026-04-22 08:15 | 48.40247 | 9.23246 | 35274 ft | 476 kts | 133° |
| 2026-04-22 08:15 | 48.35644 | 9.30408 | 35282 ft | 476 kts | 133° |
| 2026-04-22 08:16 | 48.31033 | 9.37572 | 35274 ft | 477 kts | 134° |
| 2026-04-22 08:16 | 48.26454 | 9.44684 | 35271 ft | 477 kts | 134° |
| 2026-04-22 08:17 | 48.21432 | 9.51198 | 35273 ft | 477 kts | 141° |
| 2026-04-22 08:17 | 48.16295 | 9.57514 | 35264 ft | 478 kts | 141° |
| 2026-04-22 08:18 | 48.11137 | 9.63827 | 35248 ft | 479 kts | 141° |
| 2026-04-22 08:18 | 48.05982 | 9.70143 | 35248 ft | 479 kts | 141° |
| 2026-04-22 08:19 | 48.00861 | 9.76411 | 35243 ft | 480 kts | 141° |
| 2026-04-22 08:19 | 47.95680 | 9.82716 | 35238 ft | 481 kts | 141° |
| 2026-04-22 08:20 | 47.90494 | 9.89010 | 35240 ft | 481 kts | 141° |
| 2026-04-22 08:20 | 47.85302 | 9.95308 | 35240 ft | 481 kts | 141° |
| 2026-04-22 08:21 | 47.80140 | 10.01547 | 35236 ft | 481 kts | 141° |
| 2026-04-22 08:21 | 47.74933 | 10.07811 | 35234 ft | 482 kts | 141° |
| 2026-04-22 08:22 | 47.69720 | 10.14064 | 35230 ft | 482 kts | 141° |
| 2026-04-22 08:22 | 47.64508 | 10.20321 | 35225 ft | 482 kts | 142° |
| 2026-04-22 08:23 | 47.59321 | 10.26519 | 35223 ft | 482 kts | 142° |
| 2026-04-22 08:23 | 47.53966 | 10.32489 | 35218 ft | 482 kts | 148° |
| 2026-04-22 08:24 | 47.48363 | 10.37936 | 35207 ft | 482 kts | 148° |
| 2026-04-22 08:24 | 47.42747 | 10.43375 | 35203 ft | 483 kts | 148° |
| 2026-04-22 08:25 | 47.37162 | 10.48781 | 35192 ft | 484 kts | 148° |
| 2026-04-22 08:25 | 47.31530 | 10.54224 | 35189 ft | 484 kts | 148° |
| 2026-04-22 08:26 | 47.25910 | 10.59715 | 35184 ft | 485 kts | 147° |
| 2026-04-22 08:26 | 47.20404 | 10.65488 | 35176 ft | 487 kts | 146° |
| 2026-04-22 08:27 | 47.14917 | 10.71371 | 35173 ft | 488 kts | 146° |
| 2026-04-22 08:27 | 47.09440 | 10.77159 | 35178 ft | 489 kts | 146° |
| 2026-04-22 08:28 | 47.03892 | 10.82940 | 35177 ft | 489 kts | 147° |
| 2026-04-22 08:28 | 46.98326 | 10.88706 | 35178 ft | 491 kts | 147° |
| 2026-04-22 08:29 | 46.92749 | 10.94470 | 35174 ft | 491 kts | 147° |
| 2026-04-22 08:29 | 46.87200 | 11.00205 | 35172 ft | 492 kts | 147° |
| 2026-04-22 08:30 | 46.81668 | 11.06096 | 35176 ft | 494 kts | 140° |
| 2026-04-22 08:30 | 46.76865 | 11.13273 | 35169 ft | 495 kts | 134° |
| 2026-04-22 08:31 | 46.72163 | 11.20602 | 35166 ft | 495 kts | 134° |
| 2026-04-22 08:32 | 46.65158 | 11.31450 | 35162 ft | 496 kts | 134° |
| 2026-04-22 08:32 | 46.60383 | 11.38834 | 35157 ft | 496 kts | 134° |
| 2026-04-22 08:33 | 46.55644 | 11.46147 | 35159 ft | 497 kts | 134° |
| 2026-04-22 08:33 | 46.50888 | 11.53462 | 35163 ft | 498 kts | 134° |
| 2026-04-22 08:34 | 46.46154 | 11.60717 | 35157 ft | 498 kts | 134° |
| 2026-04-22 08:34 | 46.41381 | 11.68006 | 35126 ft | 498 kts | 135° |
| 2026-04-22 08:35 | 46.36644 | 11.75370 | 35120 ft | 500 kts | 131° |
| 2026-04-22 08:35 | 46.32222 | 11.83167 | 35119 ft | 502 kts | 129° |
| 2026-04-22 08:36 | 46.27930 | 11.91065 | 35116 ft | 503 kts | 129° |
| 2026-04-22 08:36 | 46.23513 | 11.98926 | 35121 ft | 504 kts | 130° |
| 2026-04-22 08:37 | 46.19007 | 12.06688 | 35124 ft | 504 kts | 131° |
| 2026-04-22 08:37 | 46.14499 | 12.14434 | 35133 ft | 504 kts | 131° |
| 2026-04-22 08:38 | 46.10043 | 12.22158 | 35149 ft | 504 kts | 130° |
| 2026-04-22 08:38 | 46.05560 | 12.29941 | 35161 ft | 505 kts | 130° |
| 2026-04-22 08:39 | 46.01068 | 12.37706 | 35175 ft | 505 kts | 130° |
| 2026-04-22 08:39 | 45.96560 | 12.45434 | 35176 ft | 504 kts | 131° |
| 2026-04-22 08:40 | 45.92046 | 12.53154 | 35177 ft | 505 kts | 131° |
| 2026-04-22 08:40 | 45.87561 | 12.60814 | 35178 ft | 504 kts | 131° |
| 2026-04-22 08:41 | 45.83048 | 12.68511 | 35180 ft | 504 kts | 131° |
| 2026-04-22 08:41 | 45.78523 | 12.76195 | 35186 ft | 504 kts | 131° |
| 2026-04-22 08:42 | 45.73995 | 12.83866 | 35189 ft | 504 kts | 131° |
| 2026-04-22 08:42 | 45.69497 | 12.91467 | 35193 ft | 504 kts | 131° |
| 2026-04-22 08:43 | 45.64966 | 12.99107 | 35195 ft | 504 kts | 131° |
| 2026-04-22 08:43 | 45.60432 | 13.06725 | 35194 ft | 503 kts | 131° |
| 2026-04-22 08:44 | 45.55900 | 13.14333 | 35195 ft | 503 kts | 131° |
| 2026-04-22 08:44 | 45.51390 | 13.21872 | 35202 ft | 503 kts | 131° |
| 2026-04-22 08:45 | 45.46849 | 13.29431 | 35196 ft | 502 kts | 131° |
| 2026-04-22 08:45 | 45.42304 | 13.36978 | 35194 ft | 501 kts | 131° |
| 2026-04-22 08:46 | 45.37767 | 13.44505 | 35189 ft | 501 kts | 131° |
| 2026-04-22 08:46 | 45.33263 | 13.51960 | 35191 ft | 500 kts | 132° |
| 2026-04-22 08:47 | 45.28725 | 13.59439 | 35187 ft | 500 kts | 132° |
| 2026-04-22 08:47 | 45.24184 | 13.66906 | 35182 ft | 500 kts | 132° |
| 2026-04-22 08:48 | 45.19636 | 13.74362 | 35179 ft | 500 kts | 132° |
| 2026-04-22 08:48 | 45.15112 | 13.81761 | 35170 ft | 500 kts | 132° |
| 2026-04-22 08:49 | 45.10557 | 13.89200 | 35164 ft | 500 kts | 132° |
| 2026-04-22 08:49 | 45.05990 | 13.96630 | 35159 ft | 501 kts | 133° |
| 2026-04-22 08:50 | 45.01415 | 14.04053 | 35152 ft | 500 kts | 133° |
| 2026-04-22 08:50 | 44.96835 | 14.11456 | 35155 ft | 501 kts | 133° |
| 2026-04-22 08:51 | 44.92283 | 14.18806 | 35152 ft | 501 kts | 133° |
| 2026-04-22 08:51 | 44.87700 | 14.26199 | 35148 ft | 500 kts | 133° |
| 2026-04-22 08:52 | 44.83102 | 14.33571 | 35148 ft | 501 kts | 133° |
| 2026-04-22 08:52 | 44.78497 | 14.40934 | 35146 ft | 501 kts | 133° |
| 2026-04-22 08:53 | 44.73915 | 14.48262 | 35138 ft | 502 kts | 133° |
| 2026-04-22 08:53 | 44.69297 | 14.55634 | 35141 ft | 502 kts | 133° |
| 2026-04-22 08:54 | 44.64663 | 14.62994 | 35148 ft | 503 kts | 134° |
| 2026-04-22 08:54 | 44.60029 | 14.70347 | 35149 ft | 503 kts | 134° |
| 2026-04-22 08:55 | 44.55418 | 14.77638 | 35152 ft | 503 kts | 134° |
| 2026-04-22 08:55 | 44.50767 | 14.84961 | 35150 ft | 503 kts | 134° |
| 2026-04-22 08:56 | 44.46109 | 14.92272 | 35141 ft | 503 kts | 134° |
| 2026-04-22 08:56 | 44.41454 | 14.99577 | 35139 ft | 503 kts | 134° |
| 2026-04-22 08:57 | 44.36825 | 15.06845 | 35138 ft | 504 kts | 134° |
| 2026-04-22 08:57 | 44.32151 | 15.14136 | 35132 ft | 504 kts | 135° |
| 2026-04-22 08:58 | 44.27464 | 15.21403 | 35139 ft | 504 kts | 135° |
| 2026-04-22 08:58 | 44.22776 | 15.28674 | 35135 ft | 504 kts | 135° |
| 2026-04-22 08:59 | 44.18090 | 15.35941 | 35125 ft | 504 kts | 135° |
| 2026-04-22 08:59 | 44.13425 | 15.43152 | 35125 ft | 504 kts | 135° |
| 2026-04-22 09:00 | 44.08725 | 15.50394 | 35124 ft | 504 kts | 135° |
| 2026-04-22 09:00 | 44.04024 | 15.57624 | 35118 ft | 504 kts | 135° |
| 2026-04-22 09:01 | 43.99311 | 15.64863 | 35117 ft | 505 kts | 136° |
| 2026-04-22 09:01 | 43.94614 | 15.72029 | 35113 ft | 505 kts | 136° |
| 2026-04-22 09:02 | 43.89879 | 15.79235 | 35115 ft | 506 kts | 136° |
| 2026-04-22 09:02 | 43.85139 | 15.86443 | 35118 ft | 505 kts | 136° |
| 2026-04-22 09:03 | 43.80399 | 15.93644 | 35115 ft | 506 kts | 136° |
| 2026-04-22 09:03 | 43.75679 | 16.00794 | 35115 ft | 506 kts | 136° |
| 2026-04-22 09:04 | 43.70919 | 16.07974 | 35112 ft | 507 kts | 136° |
| 2026-04-22 09:04 | 43.66156 | 16.15142 | 35111 ft | 506 kts | 136° |
| 2026-04-22 09:05 | 43.61395 | 16.22295 | 35109 ft | 506 kts | 136° |
| 2026-04-22 09:05 | 43.56631 | 16.29447 | 35103 ft | 505 kts | 136° |
| 2026-04-22 09:06 | 43.51900 | 16.36516 | 35104 ft | 505 kts | 136° |
| 2026-04-22 09:06 | 43.47134 | 16.43608 | 35103 ft | 504 kts | 136° |
| 2026-04-22 09:07 | 43.42371 | 16.50689 | 35101 ft | 504 kts | 136° |
| 2026-04-22 09:07 | 43.37602 | 16.57761 | 35096 ft | 504 kts | 136° |
| 2026-04-22 09:08 | 43.32865 | 16.64773 | 35089 ft | 503 kts | 136° |
| 2026-04-22 09:08 | 43.28097 | 16.71811 | 35082 ft | 503 kts | 137° |
| 2026-04-22 09:09 | 43.23331 | 16.78827 | 35078 ft | 502 kts | 137° |
| 2026-04-22 09:09 | 43.18560 | 16.85819 | 35073 ft | 502 kts | 137° |
| 2026-04-22 09:10 | 43.13793 | 16.92805 | 35071 ft | 502 kts | 137° |
| 2026-04-22 09:10 | 43.09059 | 16.99735 | 35076 ft | 501 kts | 137° |
| 2026-04-22 09:11 | 43.04296 | 17.06678 | 35064 ft | 501 kts | 136° |
| 2026-04-22 09:11 | 42.99519 | 17.13624 | 35053 ft | 502 kts | 136° |
| 2026-04-22 09:12 | 42.94731 | 17.20569 | 35044 ft | 503 kts | 136° |
| 2026-04-22 09:12 | 42.89959 | 17.27479 | 35044 ft | 504 kts | 136° |
| 2026-04-22 09:13 | 42.85148 | 17.34429 | 35047 ft | 504 kts | 137° |
| 2026-04-22 09:13 | 42.80326 | 17.41373 | 35047 ft | 504 kts | 137° |
| 2026-04-22 09:14 | 42.75503 | 17.48300 | 35043 ft | 504 kts | 137° |
| 2026-04-22 09:14 | 42.70673 | 17.55223 | 35047 ft | 505 kts | 137° |
| 2026-04-22 09:15 | 42.65875 | 17.62098 | 35047 ft | 505 kts | 137° |
| 2026-04-22 09:15 | 42.61029 | 17.69003 | 35045 ft | 505 kts | 137° |
| 2026-04-22 09:16 | 42.56175 | 17.75903 | 35042 ft | 506 kts | 137° |
| 2026-04-22 09:16 | 42.51319 | 17.82807 | 35045 ft | 506 kts | 137° |
| 2026-04-22 09:17 | 42.46454 | 17.89694 | 35043 ft | 506 kts | 138° |
| 2026-04-22 09:17 | 42.41611 | 17.96541 | 35040 ft | 507 kts | 138° |
| 2026-04-22 09:18 | 42.36733 | 18.03417 | 35041 ft | 507 kts | 138° |
| 2026-04-22 09:18 | 42.31840 | 18.10283 | 35041 ft | 507 kts | 138° |
| 2026-04-22 09:19 | 42.26947 | 18.17136 | 35040 ft | 507 kts | 138° |
| 2026-04-22 09:19 | 42.22077 | 18.23944 | 35042 ft | 507 kts | 138° |
| 2026-04-22 09:20 | 42.17181 | 18.30787 | 35043 ft | 507 kts | 138° |
| 2026-04-22 09:20 | 42.12278 | 18.37629 | 35041 ft | 507 kts | 138° |
| 2026-04-22 09:21 | 42.07371 | 18.44450 | 35045 ft | 507 kts | 139° |
| 2026-04-22 09:21 | 42.02489 | 18.51213 | 35046 ft | 507 kts | 139° |
| 2026-04-22 09:22 | 41.97693 | 18.58190 | 35045 ft | 509 kts | 135° |
| 2026-04-22 09:22 | 41.93147 | 18.65474 | 35049 ft | 509 kts | 133° |
| 2026-04-22 09:23 | 41.88687 | 18.72862 | 35048 ft | 509 kts | 132° |
| 2026-04-22 09:23 | 41.84288 | 18.80229 | 35046 ft | 509 kts | 133° |
| 2026-04-22 09:24 | 41.79818 | 18.87585 | 35045 ft | 508 kts | 133° |
| 2026-04-22 09:24 | 41.75322 | 18.94890 | 35047 ft | 508 kts | 133° |
| 2026-04-22 09:25 | 41.70828 | 19.02191 | 35049 ft | 508 kts | 133° |
| 2026-04-22 09:25 | 41.66366 | 19.09443 | 35044 ft | 508 kts | 133° |
| 2026-04-22 09:26 | 41.61878 | 19.16732 | 35042 ft | 507 kts | 133° |
| 2026-04-22 09:26 | 41.57388 | 19.24000 | 35040 ft | 508 kts | 134° |
| 2026-04-22 09:27 | 41.52883 | 19.31251 | 35038 ft | 507 kts | 134° |
| 2026-04-22 09:27 | 41.48405 | 19.38449 | 35033 ft | 508 kts | 134° |
| 2026-04-22 09:28 | 41.43898 | 19.45696 | 35027 ft | 507 kts | 134° |
| 2026-04-22 09:28 | 41.39387 | 19.52925 | 35026 ft | 507 kts | 134° |
| 2026-04-22 09:29 | 41.34865 | 19.60136 | 35030 ft | 507 kts | 134° |
| 2026-04-22 09:29 | 41.30341 | 19.67346 | 35024 ft | 507 kts | 134° |
| 2026-04-22 09:30 | 41.25853 | 19.74499 | 35021 ft | 507 kts | 134° |
| 2026-04-22 09:30 | 41.21329 | 19.81674 | 35018 ft | 506 kts | 134° |
| 2026-04-22 09:31 | 41.16804 | 19.88841 | 35020 ft | 506 kts | 134° |
| 2026-04-22 09:31 | 41.12276 | 19.95997 | 35027 ft | 506 kts | 134° |
| 2026-04-22 09:32 | 41.07778 | 20.03081 | 35029 ft | 506 kts | 134° |
| 2026-04-22 09:32 | 41.03248 | 20.10205 | 35035 ft | 505 kts | 134° |
| 2026-04-22 09:33 | 40.98718 | 20.17309 | 35038 ft | 505 kts | 134° |
| 2026-04-22 09:33 | 40.94186 | 20.24387 | 35044 ft | 503 kts | 134° |
| 2026-04-22 09:34 | 40.89691 | 20.31393 | 35044 ft | 503 kts | 134° |
| 2026-04-22 09:34 | 40.85166 | 20.38438 | 35051 ft | 503 kts | 134° |
| 2026-04-22 09:35 | 40.78381 | 20.48982 | 35050 ft | 501 kts | 134° |
| 2026-04-22 09:35 | 40.73854 | 20.55972 | 35052 ft | 500 kts | 134° |
| 2026-04-22 09:36 | 40.69363 | 20.62894 | 35052 ft | 500 kts | 134° |
| 2026-04-22 09:36 | 40.64846 | 20.69865 | 35053 ft | 500 kts | 134° |
| 2026-04-22 09:37 | 40.60333 | 20.76826 | 35049 ft | 500 kts | 134° |
| 2026-04-22 09:37 | 40.55819 | 20.83773 | 35048 ft | 499 kts | 134° |
| 2026-04-22 09:38 | 40.51296 | 20.90695 | 35057 ft | 498 kts | 135° |
| 2026-04-22 09:38 | 40.46628 | 20.97285 | 35058 ft | 492 kts | 144° |
| 2026-04-22 09:39 | 40.41488 | 21.03202 | 35060 ft | 491 kts | 144° |
| 2026-04-22 09:39 | 40.36348 | 21.09123 | 35063 ft | 491 kts | 144° |
| 2026-04-22 09:40 | 40.31218 | 21.15023 | 35063 ft | 490 kts | 144° |
| 2026-04-22 09:40 | 40.26125 | 21.20871 | 35061 ft | 490 kts | 144° |
| 2026-04-22 09:41 | 40.20994 | 21.26735 | 35061 ft | 490 kts | 144° |
| 2026-04-22 09:41 | 40.15865 | 21.32597 | 35060 ft | 489 kts | 144° |
| 2026-04-22 09:42 | 40.10750 | 21.38438 | 35059 ft | 488 kts | 144° |
| 2026-04-22 09:42 | 40.05628 | 21.44266 | 35059 ft | 488 kts | 144° |
| 2026-04-22 09:43 | 40.00545 | 21.50042 | 35062 ft | 487 kts | 144° |
| 2026-04-22 09:43 | 39.95432 | 21.55844 | 35058 ft | 487 kts | 144° |
| 2026-04-22 09:44 | 39.90398 | 21.61762 | 35061 ft | 488 kts | 142° |
| 2026-04-22 09:44 | 39.85443 | 21.67786 | 35062 ft | 488 kts | 142° |
| 2026-04-22 09:45 | 39.80513 | 21.73751 | 35060 ft | 487 kts | 142° |
| 2026-04-22 09:45 | 39.75524 | 21.79690 | 35055 ft | 486 kts | 143° |
| 2026-04-22 09:46 | 39.70521 | 21.85591 | 35055 ft | 485 kts | 143° |
| 2026-04-22 09:46 | 39.65525 | 21.91497 | 35054 ft | 486 kts | 143° |
| 2026-04-22 09:47 | 39.60569 | 21.97372 | 35054 ft | 486 kts | 143° |
| 2026-04-22 09:47 | 39.55573 | 22.03280 | 35053 ft | 486 kts | 143° |
| 2026-04-22 09:48 | 39.50571 | 22.09162 | 35050 ft | 486 kts | 143° |
| 2026-04-22 09:48 | 39.45571 | 22.15038 | 35049 ft | 485 kts | 143° |
| 2026-04-22 09:49 | 39.40610 | 22.20869 | 35045 ft | 485 kts | 143° |
| 2026-04-22 09:49 | 39.35608 | 22.26725 | 35041 ft | 485 kts | 143° |
| 2026-04-22 09:50 | 39.30603 | 22.32566 | 35042 ft | 485 kts | 143° |
| 2026-04-22 09:50 | 39.25601 | 22.38391 | 35033 ft | 484 kts | 143° |
| 2026-04-22 09:51 | 39.20628 | 22.44169 | 35028 ft | 484 kts | 142° |
| 2026-04-22 09:51 | 39.15625 | 22.49978 | 35027 ft | 484 kts | 142° |
| 2026-04-22 09:52 | 39.10626 | 22.55784 | 35023 ft | 484 kts | 142° |
| 2026-04-22 09:52 | 39.05628 | 22.61576 | 35015 ft | 484 kts | 142° |
| 2026-04-22 09:53 | 39.00623 | 22.67363 | 35016 ft | 484 kts | 142° |
| 2026-04-22 09:53 | 38.95648 | 22.73085 | 35014 ft | 484 kts | 143° |
| 2026-04-22 09:54 | 38.90629 | 22.78841 | 35015 ft | 484 kts | 143° |
| 2026-04-22 09:54 | 38.85608 | 22.84596 | 35015 ft | 484 kts | 142° |
| 2026-04-22 09:55 | 38.80590 | 22.90352 | 35020 ft | 483 kts | 142° |
| 2026-04-22 09:55 | 38.75580 | 22.96096 | 35016 ft | 483 kts | 142° |
| 2026-04-22 09:56 | 38.70597 | 23.01789 | 35009 ft | 483 kts | 142° |
| 2026-04-22 09:56 | 38.65567 | 23.07506 | 35011 ft | 483 kts | 143° |
| 2026-04-22 09:57 | 38.60538 | 23.13205 | 35009 ft | 483 kts | 143° |
| 2026-04-22 09:57 | 38.55548 | 23.18868 | 35010 ft | 483 kts | 143° |
| 2026-04-22 09:58 | 38.50521 | 23.24563 | 35007 ft | 482 kts | 143° |
| 2026-04-22 09:58 | 38.45499 | 23.30239 | 34993 ft | 482 kts | 143° |
| 2026-04-22 09:59 | 38.40477 | 23.35909 | 34986 ft | 482 kts | 143° |
| 2026-04-22 09:59 | 38.35453 | 23.41567 | 34983 ft | 482 kts | 143° |
| 2026-04-22 10:00 | 38.30413 | 23.47213 | 34977 ft | 482 kts | 143° |
| 2026-04-22 10:00 | 38.25411 | 23.52814 | 34973 ft | 482 kts | 143° |
| 2026-04-22 10:01 | 38.20376 | 23.58455 | 34969 ft | 482 kts | 143° |
| 2026-04-22 10:01 | 38.15343 | 23.64077 | 34968 ft | 482 kts | 143° |
| 2026-04-22 10:02 | 38.10341 | 23.69649 | 34967 ft | 482 kts | 143° |
| 2026-04-22 10:02 | 38.05305 | 23.75257 | 34966 ft | 482 kts | 143° |
| 2026-04-22 10:03 | 38.00262 | 23.80859 | 34972 ft | 482 kts | 143° |
| 2026-04-22 10:03 | 37.95210 | 23.86448 | 34231 ft | 483 kts | 143° |
| 2026-04-22 10:04 | 37.92688 | 23.89239 | 33710 ft | 480 kts | 143° |
| 2026-04-22 10:04 | 37.90180 | 23.92017 | 33171 ft | 479 kts | 143° |
| 2026-04-22 10:04 | 37.87670 | 23.94791 | 32633 ft | 477 kts | 143° |
| 2026-04-22 10:04 | 37.85174 | 23.97547 | 32103 ft | 476 kts | 143° |
| 2026-04-22 10:05 | 37.82718 | 24.00256 | 31580 ft | 473 kts | 143° |
| 2026-04-22 10:05 | 37.80242 | 24.02983 | 31062 ft | 470 kts | 142° |
| 2026-04-22 10:05 | 37.77786 | 24.05693 | 30549 ft | 467 kts | 142° |
| 2026-04-22 10:05 | 37.75346 | 24.08382 | 30055 ft | 464 kts | 142° |
| 2026-04-22 10:06 | 37.72920 | 24.11052 | 29568 ft | 461 kts | 142° |
| 2026-04-22 10:06 | 37.70507 | 24.13699 | 29094 ft | 458 kts | 142° |
| 2026-04-22 10:06 | 37.68142 | 24.16287 | 28640 ft | 454 kts | 142° |
| 2026-04-22 10:06 | 37.65766 | 24.18888 | 28181 ft | 450 kts | 142° |
| 2026-04-22 10:07 | 37.63410 | 24.21467 | 27718 ft | 447 kts | 142° |
| 2026-04-22 10:07 | 37.61069 | 24.24030 | 27265 ft | 444 kts | 142° |
| 2026-04-22 10:07 | 37.58744 | 24.26570 | 26812 ft | 442 kts | 143° |
| 2026-04-22 10:07 | 37.56431 | 24.29086 | 26385 ft | 437 kts | 144° |
| 2026-04-22 10:08 | 37.53956 | 24.31267 | 26023 ft | 431 kts | 152° |
| 2026-04-22 10:08 | 37.51430 | 24.33261 | 25549 ft | 429 kts | 152° |
| 2026-04-22 10:08 | 37.48917 | 24.35240 | 25195 ft | 424 kts | 152° |
| 2026-04-22 10:08 | 37.46415 | 24.37206 | 24779 ft | 421 kts | 152° |
| 2026-04-22 10:09 | 37.43975 | 24.39123 | 24454 ft | 417 kts | 152° |
| 2026-04-22 10:09 | 37.41514 | 24.41053 | 24034 ft | 416 kts | 152° |
| 2026-04-22 10:09 | 37.39071 | 24.42966 | 23637 ft | 413 kts | 152° |
| 2026-04-22 10:09 | 37.36640 | 24.44871 | 23234 ft | 410 kts | 152° |
| 2026-04-22 10:10 | 37.34226 | 24.46758 | 22812 ft | 407 kts | 152° |
| 2026-04-22 10:10 | 37.31829 | 24.48628 | 22385 ft | 405 kts | 152° |
| 2026-04-22 10:10 | 37.29447 | 24.50490 | 21960 ft | 402 kts | 152° |
| 2026-04-22 10:10 | 37.27081 | 24.52341 | 21515 ft | 399 kts | 152° |
| 2026-04-22 10:11 | 37.24761 | 24.54155 | 21086 ft | 397 kts | 152° |
| 2026-04-22 10:11 | 37.22424 | 24.55981 | 20639 ft | 394 kts | 152° |
| 2026-04-22 10:11 | 37.20106 | 24.57791 | 20197 ft | 391 kts | 152° |
| 2026-04-22 10:11 | 37.17804 | 24.59587 | 19738 ft | 388 kts | 151° |
| 2026-04-22 10:12 | 37.15517 | 24.61368 | 19279 ft | 386 kts | 152° |
| 2026-04-22 10:12 | 37.13241 | 24.63134 | 18827 ft | 383 kts | 152° |
| 2026-04-22 10:12 | 37.10976 | 24.64885 | 18375 ft | 381 kts | 152° |
| 2026-04-22 10:12 | 37.08732 | 24.66621 | 17941 ft | 378 kts | 151° |
| 2026-04-22 10:13 | 37.06506 | 24.68344 | 17479 ft | 375 kts | 151° |
| 2026-04-22 10:13 | 37.04322 | 24.70039 | 17047 ft | 373 kts | 151° |
| 2026-04-22 10:13 | 37.02136 | 24.71740 | 16616 ft | 370 kts | 151° |
| 2026-04-22 10:13 | 36.99951 | 24.73439 | 16198 ft | 367 kts | 151° |
| 2026-04-22 10:14 | 36.97832 | 24.75085 | 16029 ft | 347 kts | 151° |
| 2026-04-22 10:14 | 36.95844 | 24.76631 | 15888 ft | 327 kts | 152° |
| 2026-04-22 10:14 | 36.93928 | 24.78113 | 15685 ft | 332 kts | 152° |
| 2026-04-22 10:14 | 36.91860 | 24.79689 | 15511 ft | 364 kts | 152° |
| 2026-04-22 10:15 | 36.90392 | 24.80807 | 15402 ft | 379 kts | 151° |
| 2026-04-22 10:15 | 36.87468 | 24.83056 | 14411 ft | 373 kts | 151° |
| 2026-04-22 10:15 | 36.85239 | 24.84783 | 12898 ft | 382 kts | 150° |
| 2026-04-22 10:15 | 36.82971 | 24.86550 | 11864 ft | 379 kts | 150° |
| 2026-04-22 10:16 | 36.80824 | 24.88228 | 11655 ft | 350 kts | 150° |
| 2026-04-22 10:16 | 36.78810 | 24.89798 | 11254 ft | 333 kts | 151° |
| 2026-04-22 10:16 | 36.76890 | 24.91286 | 11010 ft | 320 kts | 151° |
| 2026-04-22 10:16 | 36.75643 | 24.92248 | 10856 ft | 316 kts | 151° |
| 2026-04-22 10:17 | 36.73796 | 24.93671 | 10637 ft | 309 kts | 151° |
| 2026-04-22 10:17 | 36.72072 | 24.95268 | 10279 ft | 311 kts | 137° |
| 2026-04-22 10:17 | 36.70428 | 24.98176 | 9787 ft | 313 kts | 115° |
| 2026-04-22 10:17 | 36.69816 | 25.00779 | 9418 ft | 314 kts | 98° |
| 2026-04-22 10:18 | 36.69544 | 25.03474 | 9063 ft | 312 kts | 97° |
| 2026-04-22 10:18 | 36.69365 | 25.05245 | 8815 ft | 312 kts | 97° |
| 2026-04-22 10:18 | 36.69088 | 25.07919 | 8507 ft | 309 kts | 98° |
| 2026-04-22 10:18 | 36.68808 | 25.10576 | 8181 ft | 307 kts | 98° |
| 2026-04-22 10:19 | 36.68527 | 25.13210 | 7761 ft | 305 kts | 98° |
| 2026-04-22 10:19 | 36.68238 | 25.15826 | 7465 ft | 302 kts | 101° |
| 2026-04-22 10:19 | 36.67325 | 25.19063 | 6997 ft | 299 kts | 121° |
| 2026-04-22 10:19 | 36.66165 | 25.21190 | 6658 ft | 296 kts | 128° |
| 2026-04-22 10:20 | 36.65346 | 25.22593 | 6296 ft | 300 kts | 128° |
| 2026-04-22 10:20 | 36.64130 | 25.24680 | 5835 ft | 302 kts | 128° |
| 2026-04-22 10:20 | 36.62900 | 25.26799 | 5452 ft | 301 kts | 128° |
| 2026-04-22 10:20 | 36.61680 | 25.28905 | 5089 ft | 299 kts | 128° |
| 2026-04-22 10:21 | 36.60485 | 25.30966 | 4730 ft | 287 kts | 128° |
| 2026-04-22 10:21 | 36.59344 | 25.32936 | 4377 ft | 274 kts | 128° |
| 2026-04-22 10:21 | 36.58252 | 25.34817 | 4058 ft | 262 kts | 128° |
| 2026-04-22 10:21 | 36.57208 | 25.36612 | 3752 ft | 251 kts | 128° |
| 2026-04-22 10:22 | 36.56206 | 25.38323 | 3473 ft | 238 kts | 128° |
| 2026-04-22 10:22 | 36.55271 | 25.39926 | 3189 ft | 227 kts | 129° |
| 2026-04-22 10:22 | 36.54139 | 25.41180 | 2899 ft | 212 kts | 155° |
| 2026-04-22 10:22 | 36.52817 | 25.41844 | 2660 ft | 198 kts | 162° |
| 2026-04-22 10:23 | 36.51561 | 25.42436 | 2388 ft | 188 kts | 162° |
| 2026-04-22 10:23 | 36.50386 | 25.42993 | 2150 ft | 170 kts | 162° |
| 2026-04-22 10:23 | 36.49351 | 25.43486 | 1922 ft | 151 kts | 163° |
| 2026-04-22 10:23 | 36.48393 | 25.43938 | 1727 ft | 144 kts | 163° |
| 2026-04-22 10:24 | 36.47465 | 25.44373 | 1529 ft | 141 kts | 163° |
| 2026-04-22 10:24 | 36.46550 | 25.44802 | 1345 ft | 140 kts | 163° |
| 2026-04-22 10:24 | 36.45653 | 25.45222 | 1159 ft | 139 kts | 163° |
| 2026-04-22 10:24 | 36.44749 | 25.45645 | 981 ft | 139 kts | 163° |
| 2026-04-22 10:25 | 36.43847 | 25.46070 | 748 ft | 137 kts | 163° |
| 2026-04-22 10:25 | 36.42950 | 25.46492 | 596 ft | 138 kts | 163° |
| 2026-04-22 10:25 | 36.42051 | 25.46915 | 407 ft | 138 kts | 162° |
| 2026-04-22 10:25 | 36.41152 | 25.47340 | 238 ft | 138 kts | 162° |
| 2026-04-22 10:26 | 36.40260 | 25.47747 | 89 ft | 124 kts | 162° |
| 2026-04-22 10:26 | 36.39731 | 25.47997 | 70 ft | 51 kts | 159° |
| 2026-04-22 10:26 | 36.39403 | 25.48159 | 68 ft | 34 kts | 157° |
| 2026-04-22 10:26 | 36.39165 | 25.48275 | 61 ft | 36 kts | 159° |
| 2026-04-22 10:27 | 36.39010 | 25.48224 | 56 ft | 26 kts | 268° |
| 2026-04-22 10:27 | 36.39139 | 25.48124 | 62 ft | 27 kts | 335° |
| 2026-04-22 10:27 | 36.39334 | 25.48024 | 69 ft | 27 kts | 339° |
| 2026-04-22 10:27 | 36.39511 | 25.47938 | 75 ft | 27 kts | 338° |
| 2026-04-22 10:28 | 36.39689 | 25.47856 | 80 ft | 28 kts | 339° |
| 2026-04-22 10:28 | 36.39870 | 25.47769 | 85 ft | 28 kts | 339° |
| 2026-04-22 10:28 | 36.40037 | 25.47692 | 89 ft | 25 kts | 341° |
| 2026-04-22 10:28 | 36.40129 | 25.47558 | 92 ft | 18 kts | 275° |
| 2026-04-22 10:29 | 36.40184 | 25.47518 | 89 ft | 9 kts | 345° |
| 2026-04-22 10:29 | 36.40253 | 25.47488 | 89 ft | 12 kts | 339° |
| 2026-04-22 10:29 | 36.40329 | 25.47453 | 90 ft | 10 kts | 340° |
| 2026-04-22 10:29 | 36.40341 | 25.47379 | 90 ft | 7 kts | 248° |
| 2026-04-22 10:30 | 36.40341 | 25.47377 | 90 ft | 0 kts | 248° |
| 2026-04-22 10:30 | 36.40342 | 25.47380 | 90 ft | 0 kts | 249° |